createdAt,value
2019-05-13T00:00:30.817Z,9.50
2019-05-13T00:02:04.649Z,9.60
2019-05-13T00:03:37.320Z,9.50
2019-05-13T00:05:09.659Z,9.50
2019-05-13T00:06:53.229Z,9.50
2019-05-13T00:08:16.171Z,9.50
2019-05-13T00:09:48.497Z,9.50
2019-05-13T00:11:20.828Z,9.50
2019-05-13T00:12:54.039Z,9.50
2019-05-13T00:14:26.797Z,9.50
2019-05-13T00:15:59.262Z,9.40
2019-05-13T00:17:33.788Z,9.40
2019-05-13T00:19:05.984Z,9.40
2019-05-13T00:20:39.079Z,9.40
2019-05-13T00:22:13.882Z,9.40
2019-05-13T00:23:45.586Z,9.40
2019-05-13T00:25:17.984Z,9.50
2019-05-13T00:26:50.318Z,9.40
2019-05-13T00:28:23.452Z,9.40
2019-05-13T00:29:55.971Z,9.40
2019-05-13T00:31:28.376Z,9.40
2019-05-13T00:33:00.707Z,9.50
2019-05-13T00:34:33.881Z,9.50
2019-05-13T00:36:06.533Z,9.50
2019-05-13T00:37:38.954Z,9.50
2019-05-13T00:39:11.299Z,9.50
2019-05-13T00:40:44.447Z,9.50
2019-05-13T00:42:16.916Z,9.50
2019-05-13T00:43:49.348Z,9.50
2019-05-13T00:45:21.675Z,9.50
2019-05-13T00:46:54.017Z,9.50
2019-05-13T00:48:29.500Z,9.50
2019-05-13T00:50:00.540Z,9.50
2019-05-13T00:51:33.780Z,9.60
2019-05-13T00:53:06.327Z,9.50
2019-05-13T00:54:38.744Z,9.50
2019-05-13T00:56:13.234Z,9.50
2019-05-13T00:57:45.163Z,9.60
2019-05-13T00:59:17.562Z,9.50
2019-05-13T01:00:49.920Z,9.60
2019-05-13T01:02:24.335Z,9.60
2019-05-13T01:03:56.433Z,9.60
2019-05-13T01:05:28.792Z,9.60
2019-05-13T01:07:01.115Z,9.60
2019-05-13T01:08:33.936Z,9.60
2019-05-13T01:10:06.460Z,9.60
2019-05-13T01:11:38.941Z,9.60
2019-05-13T01:13:13.179Z,9.60
2019-05-13T01:14:45.677Z,9.60
2019-05-13T01:16:18.071Z,9.60
2019-05-13T01:17:50.498Z,9.60
2019-05-13T01:19:23.712Z,9.60
2019-05-13T01:20:56.394Z,9.60
2019-05-13T01:22:28.803Z,9.60
2019-05-13T01:24:03.491Z,9.60
2019-05-13T01:25:35.248Z,9.60
2019-05-13T01:27:07.727Z,9.60
2019-05-13T01:28:40.072Z,9.60
2019-05-13T01:30:13.392Z,9.60
2019-05-13T01:31:46.153Z,9.60
2019-05-13T01:33:18.559Z,9.60
2019-05-13T01:34:50.887Z,9.60
2019-05-13T01:36:23.522Z,9.60
2019-05-13T01:37:55.968Z,9.60
2019-05-13T01:39:28.432Z,9.60
2019-05-13T01:41:00.777Z,9.60
2019-05-13T01:42:33.669Z,9.60
2019-05-13T01:44:06.184Z,9.60
2019-05-13T01:45:38.591Z,9.60
2019-05-13T01:47:13.317Z,9.60
2019-05-13T01:48:45.134Z,9.60
2019-05-13T01:50:17.589Z,9.50
2019-05-13T01:51:50.096Z,9.50
2019-05-13T01:53:24.386Z,9.50
2019-05-13T01:54:56.632Z,9.50
2019-05-13T01:56:29.036Z,9.50
2019-05-13T01:58:03.872Z,9.50
2019-05-13T01:59:35.632Z,9.50
2019-05-13T02:01:07.970Z,9.50
2019-05-13T02:02:40.462Z,9.50
2019-05-13T02:04:14.229Z,9.50
2019-05-13T02:05:46.779Z,9.50
2019-05-13T02:07:19.179Z,9.50
2019-05-13T02:08:51.712Z,9.40
2019-05-13T02:10:24.569Z,9.40
2019-05-13T02:11:57.081Z,9.40
2019-05-13T02:13:29.458Z,9.40
2019-05-13T02:15:04.230Z,9.40
2019-05-13T02:16:35.884Z,9.40
2019-05-13T02:18:08.312Z,9.40
2019-05-13T02:19:40.648Z,9.40
2019-05-13T02:21:13.947Z,9.40
2019-05-13T02:22:46.506Z,9.40
2019-05-13T02:24:18.946Z,9.40
2019-05-13T02:25:53.823Z,9.40
2019-05-13T02:27:25.653Z,9.40
2019-05-13T02:28:58.139Z,9.40
2019-05-13T02:30:30.737Z,9.40
2019-05-13T02:32:03.408Z,9.40
2019-05-13T02:33:35.936Z,9.40
2019-05-13T02:35:08.364Z,9.40
2019-05-13T02:36:43.641Z,9.40
2019-05-13T02:38:23.969Z,9.40
2019-05-13T02:39:49.001Z,9.40
2019-05-13T02:41:22.788Z,9.40
2019-05-13T02:42:55.515Z,9.40
2019-05-13T02:44:28.001Z,9.40
2019-05-13T02:46:03.767Z,9.40
2019-05-13T02:47:34.519Z,9.40
2019-05-13T02:49:06.949Z,9.40
2019-05-13T02:50:39.352Z,9.40
2019-05-13T02:52:13.284Z,9.40
2019-05-13T02:53:45.821Z,9.40
2019-05-13T02:55:18.222Z,9.40
2019-05-13T02:56:52.696Z,9.40
2019-05-13T02:58:25.600Z,9.40
2019-05-13T02:59:58.130Z,9.40
2019-05-13T03:01:33.177Z,9.40
2019-05-13T03:03:04.629Z,9.50
2019-05-13T03:04:37.072Z,9.50
2019-05-13T03:06:09.506Z,9.50
2019-05-13T03:07:42.682Z,9.50
2019-05-13T03:09:15.683Z,9.50
2019-05-13T03:10:48.120Z,9.50
2019-05-13T03:12:22.989Z,9.50
2019-05-13T03:13:54.701Z,9.50
2019-05-13T03:15:27.139Z,9.50
2019-05-13T03:17:02.753Z,9.50
2019-05-13T03:18:33.822Z,9.50
2019-05-13T03:20:06.290Z,9.50
2019-05-13T03:21:39.084Z,9.50
2019-05-13T03:23:13.395Z,9.40
2019-05-13T03:24:45.562Z,9.40
2019-05-13T03:26:18.012Z,9.40
2019-05-13T03:27:53.892Z,9.50
2019-05-13T03:29:24.441Z,9.50
2019-05-13T03:30:57.256Z,9.50
2019-05-13T03:32:41.817Z,9.50
2019-05-13T03:34:06.430Z,9.50
2019-05-13T03:35:38.076Z,9.50
2019-05-13T03:37:15.299Z,9.50
2019-05-13T03:39:01.464Z,9.50
2019-05-13T03:40:22.790Z,9.50
2019-05-13T03:41:53.780Z,9.50
2019-05-13T03:43:26.181Z,9.50
2019-05-13T03:44:58.649Z,9.50
2019-05-13T03:46:33.389Z,9.40
2019-05-13T03:48:05.114Z,9.40
2019-05-13T03:49:37.515Z,9.40
2019-05-13T03:51:12.947Z,9.50
2019-05-13T03:52:43.995Z,9.40
2019-05-13T03:54:16.488Z,9.40
2019-05-13T03:55:48.824Z,9.40
2019-05-13T03:57:23.262Z,9.40
2019-05-13T03:58:55.224Z,9.40
2019-05-13T04:02:36.226Z,9.40
2019-05-13T04:04:24.751Z,9.40
2019-05-13T04:05:57.083Z,9.40
2019-05-13T04:07:32.428Z,9.40
2019-05-13T04:09:21.083Z,9.40
2019-05-13T04:10:37.557Z,9.40
2019-05-13T04:12:13.167Z,9.40
2019-05-13T04:13:44.112Z,9.40
2019-05-13T04:15:16.525Z,9.40
2019-05-13T04:16:48.994Z,9.30
2019-05-13T04:18:23.442Z,9.30
2019-05-13T04:19:55.453Z,9.30
2019-05-13T04:21:27.924Z,9.20
2019-05-13T04:23:03.039Z,9.20
2019-05-13T04:24:34.464Z,9.20
2019-05-13T04:26:06.932Z,9.20
2019-05-13T04:27:42.696Z,9.10
2019-05-13T04:29:13.598Z,9.20
2019-05-13T04:30:46.076Z,9.10
2019-05-13T04:32:18.410Z,9.20
2019-05-13T04:33:53.086Z,9.20
2019-05-13T04:35:24.935Z,9.20
2019-05-13T04:36:57.339Z,9.20
2019-05-13T04:38:32.185Z,9.20
2019-05-13T04:40:04.243Z,9.20
2019-05-13T04:41:36.753Z,9.30
2019-05-13T04:43:09.161Z,9.30
2019-05-13T04:44:42.850Z,9.30
2019-05-13T04:46:15.499Z,9.30
2019-05-13T04:47:47.841Z,9.30
2019-05-13T04:49:23.246Z,9.30
2019-05-13T04:50:54.310Z,9.40
2019-05-13T04:52:26.690Z,9.40
2019-05-13T04:54:02.488Z,9.40
2019-05-13T04:55:33.493Z,9.40
2019-05-13T04:57:06.025Z,9.50
2019-05-13T04:58:38.384Z,9.50
2019-05-13T05:00:12.878Z,9.50
2019-05-13T05:01:48.776Z,9.50
2019-05-13T05:03:22.766Z,9.50
2019-05-13T05:04:53.064Z,9.50
2019-05-13T05:06:25.553Z,9.50
2019-05-13T05:07:57.971Z,9.50
2019-05-13T05:09:33.010Z,9.60
2019-05-13T05:11:04.493Z,9.60
2019-05-13T05:12:36.953Z,9.60
2019-05-13T05:14:11.838Z,9.60
2019-05-13T05:15:43.476Z,9.70
2019-05-13T05:17:15.868Z,9.70
2019-05-13T05:18:48.202Z,9.70
2019-05-13T05:20:23.099Z,9.70
2019-05-13T05:21:55.409Z,9.70
2019-05-13T05:23:28.059Z,9.70
2019-05-13T05:25:01.599Z,9.70
2019-05-13T05:26:34.243Z,9.80
2019-05-13T05:28:06.571Z,9.80
2019-05-13T05:29:38.896Z,9.80
2019-05-13T05:31:11.614Z,9.90
2019-05-13T05:32:44.039Z,9.90
2019-05-13T05:34:16.440Z,10.00
2019-05-13T05:35:48.772Z,10.00
2019-05-13T05:37:22.331Z,10.00
2019-05-13T05:38:54.955Z,10.00
2019-05-13T05:40:31.573Z,10.10
2019-05-13T05:42:02.162Z,10.10
2019-05-13T05:43:34.867Z,10.20
2019-05-13T05:45:07.272Z,10.20
2019-05-13T05:46:39.610Z,10.20
2019-05-13T05:48:12.103Z,10.30
2019-05-13T05:49:44.511Z,10.30
2019-05-13T05:51:16.848Z,10.30
2019-05-13T05:52:51.281Z,10.30
2019-05-13T05:54:23.343Z,10.40
2019-05-13T05:55:55.684Z,10.40
2019-05-13T05:57:28.184Z,10.50
2019-05-13T05:59:02.790Z,10.50
2019-05-13T06:00:35.095Z,10.50
2019-05-13T06:02:07.641Z,10.50
2019-05-13T06:03:41.787Z,10.60
2019-05-13T06:05:14.284Z,10.60
2019-05-13T06:06:46.612Z,10.60
2019-05-13T06:08:19.101Z,10.70
2019-05-13T06:09:51.670Z,10.70
2019-05-13T06:11:25.005Z,10.70
2019-05-13T06:12:58.208Z,10.70
2019-05-13T06:14:32.702Z,10.80
2019-05-13T06:16:05.194Z,10.80
2019-05-13T06:17:37.781Z,10.80
2019-05-13T06:19:12.076Z,10.80
2019-05-13T06:20:44.302Z,10.80
2019-05-13T06:22:16.639Z,10.80
2019-05-13T06:23:48.996Z,10.80
2019-05-13T06:25:23.443Z,10.80
2019-05-13T06:26:55.632Z,10.90
2019-05-13T06:28:28.060Z,10.90
2019-05-13T06:30:02.318Z,10.90
2019-05-13T06:31:34.645Z,10.90
2019-05-13T06:33:06.990Z,10.90
2019-05-13T06:34:41.524Z,10.90
2019-05-13T06:36:13.587Z,10.90
2019-05-13T06:37:45.931Z,10.90
2019-05-13T06:39:18.452Z,11.00
2019-05-13T06:41:00.432Z,11.00
2019-05-13T06:42:24.979Z,11.00
2019-05-13T06:43:57.462Z,11.00
2019-05-13T06:45:31.663Z,11.00
2019-05-13T06:47:03.940Z,11.00
2019-05-13T06:48:36.333Z,11.00
2019-05-13T06:50:11.547Z,11.00
2019-05-13T06:51:42.866Z,11.00
2019-05-13T06:53:15.343Z,11.00
2019-05-13T06:54:48.098Z,11.00
2019-05-13T06:56:21.763Z,11.00
2019-05-13T06:57:54.518Z,11.00
2019-05-13T06:59:26.919Z,11.00
2019-05-13T07:01:03.149Z,11.00
2019-05-13T07:02:33.404Z,11.00
2019-05-13T07:04:05.816Z,11.00
2019-05-13T07:05:38.192Z,11.00
2019-05-13T07:07:16.094Z,11.00
2019-05-13T07:08:44.698Z,11.00
2019-05-13T07:10:17.035Z,11.10
2019-05-13T07:11:51.706Z,11.10
2019-05-13T07:13:23.603Z,11.10
2019-05-13T07:14:56.007Z,11.10
2019-05-13T07:16:28.504Z,11.20
2019-05-13T07:18:02.318Z,11.20
2019-05-13T07:19:35.012Z,11.20
2019-05-13T07:21:07.484Z,11.20
2019-05-13T07:22:42.174Z,11.20
2019-05-13T07:24:14.185Z,11.20
2019-05-13T07:25:46.523Z,11.30
2019-05-13T07:27:18.961Z,11.30
2019-05-13T07:28:52.454Z,11.30
2019-05-13T07:30:25.295Z,11.40
2019-05-13T07:31:57.891Z,11.40
2019-05-13T07:33:32.044Z,11.40
2019-05-13T07:35:04.725Z,11.40
2019-05-13T07:36:37.212Z,11.50
2019-05-13T07:38:11.726Z,11.50
2019-05-13T07:39:43.728Z,11.50
2019-05-13T07:41:16.122Z,11.50
2019-05-13T07:42:48.482Z,11.50
2019-05-13T07:44:22.368Z,11.50
2019-05-13T07:45:54.932Z,11.50
2019-05-13T07:47:27.291Z,11.50
2019-05-13T07:49:01.815Z,11.50
2019-05-13T07:50:33.888Z,11.50
2019-05-13T07:52:06.308Z,11.60
2019-05-13T07:53:38.732Z,11.60
2019-05-13T07:55:11.990Z,11.60
2019-05-13T07:56:44.575Z,11.60
2019-05-13T07:58:16.959Z,11.60
2019-05-13T07:59:49.432Z,11.70
2019-05-13T08:01:22.190Z,11.70
2019-05-13T08:02:54.814Z,11.80
2019-05-13T08:04:27.246Z,11.80
2019-05-13T08:06:01.876Z,11.80
2019-05-13T08:07:33.675Z,11.80
2019-05-13T08:09:06.105Z,11.90
2019-05-13T08:10:38.513Z,11.90
2019-05-13T08:12:14.427Z,11.90
2019-05-13T08:13:45.087Z,11.90
2019-05-13T08:15:17.487Z,12.00
2019-05-13T08:16:51.773Z,12.00
2019-05-13T08:18:24.012Z,12.00
2019-05-13T08:19:56.410Z,12.00
2019-05-13T08:21:28.897Z,12.10
2019-05-13T08:23:02.624Z,12.10
2019-05-13T08:24:35.292Z,12.10
2019-05-13T08:26:07.627Z,12.20
2019-05-13T08:27:41.988Z,12.20
2019-05-13T08:29:14.080Z,12.20
2019-05-13T08:30:46.572Z,12.20
2019-05-13T08:32:19.055Z,12.30
2019-05-13T08:33:52.009Z,12.30
2019-05-13T08:35:24.503Z,12.40
2019-05-13T08:36:56.843Z,12.40
2019-05-13T08:38:31.699Z,12.50
2019-05-13T08:40:03.372Z,12.50
2019-05-13T08:41:35.792Z,12.60
2019-05-13T08:43:08.132Z,12.70
2019-05-13T08:44:41.685Z,12.70
2019-05-13T08:46:14.423Z,12.80
2019-05-13T08:47:46.763Z,12.80
2019-05-13T08:49:19.234Z,12.90
2019-05-13T08:50:52.251Z,12.90
2019-05-13T08:52:24.800Z,13.00
2019-05-13T08:53:57.342Z,13.00
2019-05-13T08:55:32.105Z,13.00
2019-05-13T08:57:03.999Z,13.00
2019-05-13T08:58:36.411Z,13.00
2019-05-13T09:00:08.835Z,13.00
2019-05-13T09:01:42.687Z,13.00
2019-05-13T09:03:15.508Z,13.00
2019-05-13T09:04:47.915Z,13.00
2019-05-13T09:06:22.117Z,13.00
2019-05-13T09:07:54.371Z,13.00
2019-05-13T09:09:26.776Z,13.10
2019-05-13T09:11:01.397Z,13.10
2019-05-13T09:12:36.290Z,13.10
2019-05-13T09:14:07.339Z,13.10
2019-05-13T09:15:42.092Z,13.10
2019-05-13T09:17:14.310Z,13.10
2019-05-13T09:18:46.645Z,13.20
2019-05-13T09:20:18.998Z,13.20
2019-05-13T09:21:52.637Z,13.20
2019-05-13T09:23:25.203Z,13.30
2019-05-13T09:24:57.539Z,13.30
2019-05-13T09:26:31.558Z,13.30
2019-05-13T09:28:04.249Z,13.30
2019-05-13T09:29:36.579Z,13.30
2019-05-13T09:31:08.978Z,13.30
2019-05-13T09:32:42.508Z,13.40
2019-05-13T09:34:15.267Z,13.40
2019-05-13T09:35:50.216Z,13.50
2019-05-13T09:37:22.455Z,13.50
2019-05-13T09:38:55.129Z,13.60
2019-05-13T09:40:27.553Z,13.70
2019-05-13T09:42:02.307Z,13.70
2019-05-13T09:43:34.011Z,13.80
2019-05-13T09:45:06.492Z,13.80
2019-05-13T09:46:38.923Z,13.90
2019-05-13T09:48:12.934Z,13.90
2019-05-13T09:49:45.516Z,14.00
2019-05-13T09:51:17.916Z,14.00
2019-05-13T09:52:51.800Z,14.00
2019-05-13T09:54:24.371Z,14.00
2019-05-13T09:55:56.781Z,14.00
2019-05-13T09:57:31.983Z,14.00
2019-05-13T09:59:03.306Z,14.00
2019-05-13T10:00:35.653Z,14.00
2019-05-13T10:02:08.084Z,14.00
2019-05-13T10:05:14.677Z,14.10
2019-05-13T10:06:47.103Z,14.00
2019-05-13T10:08:21.934Z,14.00
2019-05-13T10:09:53.623Z,14.00
2019-05-13T10:11:25.963Z,14.00
2019-05-13T10:13:09.190Z,14.00
2019-05-13T10:14:33.223Z,14.00
2019-05-13T10:16:05.735Z,14.00
2019-05-13T10:17:38.201Z,14.00
2019-05-13T10:19:12.704Z,14.00
2019-05-13T10:20:44.981Z,14.00
2019-05-13T10:22:17.555Z,14.00
2019-05-13T10:23:50.080Z,14.00
2019-05-13T10:25:22.715Z,14.00
2019-05-13T10:26:55.236Z,14.00
2019-05-13T10:28:27.703Z,13.90
2019-05-13T10:30:00.044Z,13.90
2019-05-13T10:31:32.535Z,13.90
2019-05-13T10:33:04.984Z,13.90
2019-05-13T10:34:37.405Z,13.90
2019-05-13T10:36:11.970Z,13.90
2019-05-13T10:37:44.023Z,13.90
2019-05-13T10:39:16.435Z,13.90
2019-05-13T10:40:48.838Z,13.90
2019-05-13T10:42:22.271Z,13.90
2019-05-13T10:43:54.795Z,13.90
2019-05-13T10:45:27.286Z,13.90
2019-05-13T10:47:01.990Z,13.90
2019-05-13T10:48:33.919Z,13.90
2019-05-13T10:50:06.326Z,13.90
2019-05-13T10:51:39.318Z,13.90
2019-05-13T10:53:12.887Z,13.90
2019-05-13T10:54:45.355Z,13.90
2019-05-13T10:56:20.416Z,13.90
2019-05-13T10:57:52.759Z,14.00
2019-05-13T10:59:25.257Z,13.90
2019-05-13T11:00:57.748Z,13.90
2019-05-13T11:02:32.720Z,13.90
2019-05-13T11:04:04.231Z,13.90
2019-05-13T11:07:12.064Z,13.90
2019-05-13T11:08:44.671Z,14.00
2019-05-13T11:10:17.098Z,14.00
2019-05-13T11:11:52.166Z,14.00
2019-05-13T11:13:23.611Z,14.00
2019-05-13T11:14:56.053Z,14.00
2019-05-13T11:16:28.407Z,14.10
2019-05-13T11:18:03.035Z,14.10
2019-05-13T11:19:37.173Z,14.10
2019-05-13T11:21:09.024Z,14.10
2019-05-13T11:22:41.448Z,14.10
2019-05-13T11:24:14.747Z,14.20
2019-05-13T11:25:52.358Z,14.20
2019-05-13T11:27:24.624Z,14.20
2019-05-13T11:28:57.143Z,14.20
2019-05-13T11:30:31.808Z,14.20
2019-05-13T11:32:03.804Z,14.20
2019-05-13T11:33:36.312Z,14.30
2019-05-13T11:35:08.839Z,14.30
2019-05-13T11:36:43.089Z,14.30
2019-05-13T11:38:15.618Z,14.30
2019-05-13T11:39:48.037Z,14.40
2019-05-13T11:41:22.805Z,14.50
2019-05-13T11:42:54.719Z,14.60
2019-05-13T11:44:27.128Z,14.60
2019-05-13T11:46:01.975Z,14.70
2019-05-13T11:47:33.818Z,14.80
2019-05-13T11:49:06.215Z,14.90
2019-05-13T11:50:38.710Z,15.00
2019-05-13T11:52:11.647Z,15.00
2019-05-13T11:53:44.537Z,15.00
2019-05-13T11:55:17.024Z,15.10
2019-05-13T11:56:55.660Z,15.10
2019-05-13T11:58:23.634Z,15.10
2019-05-13T11:59:56.031Z,15.10
2019-05-13T12:01:28.526Z,15.00
2019-05-13T12:03:04.205Z,15.00
2019-05-13T12:04:35.396Z,15.00
2019-05-13T12:06:07.988Z,15.00
2019-05-13T12:07:42.042Z,15.00
2019-05-13T12:09:14.676Z,14.90
2019-05-13T12:10:47.232Z,14.90
2019-05-13T12:12:21.964Z,14.90
2019-05-13T12:13:53.886Z,14.90
2019-05-13T12:15:38.856Z,14.90
2019-05-13T12:17:02.296Z,14.90
2019-05-13T12:18:34.676Z,14.90
2019-05-13T12:20:07.154Z,14.90
2019-05-13T12:21:45.303Z,14.90
2019-05-13T12:23:13.817Z,14.90
2019-05-13T12:24:46.292Z,14.90
2019-05-13T12:26:18.732Z,14.90
2019-05-13T12:27:51.937Z,15.10
2019-05-13T12:29:24.527Z,15.20
2019-05-13T12:30:57.667Z,15.30
2019-05-13T12:32:32.329Z,15.50
2019-05-13T12:34:04.245Z,15.60
2019-05-13T12:35:37.053Z,15.70
2019-05-13T12:37:12.027Z,15.80
2019-05-13T12:38:44.456Z,15.90
2019-05-13T12:40:17.140Z,15.90
2019-05-13T12:41:49.636Z,15.90
2019-05-13T12:43:24.065Z,15.90
2019-05-13T12:45:08.218Z,15.90
2019-05-13T12:46:30.299Z,15.90
2019-05-13T12:48:03.316Z,15.90
2019-05-13T12:49:36.772Z,16.00
2019-05-13T12:51:12.385Z,16.10
2019-05-13T12:52:43.991Z,16.20
2019-05-13T12:54:16.540Z,16.30
2019-05-13T12:55:55.697Z,16.50
2019-05-13T12:57:23.370Z,16.60
2019-05-13T12:58:55.751Z,16.60
2019-05-13T13:00:28.157Z,16.70
2019-05-13T13:02:03.258Z,16.70
2019-05-13T13:03:35.058Z,16.70
2019-05-13T13:05:13.545Z,16.60
2019-05-13T13:06:45.376Z,16.60
2019-05-13T13:08:37.975Z,16.50
2019-05-13T13:09:53.635Z,16.50
2019-05-13T13:11:24.507Z,16.40
2019-05-13T13:12:56.868Z,16.50
2019-05-13T13:14:39.063Z,16.80
2019-05-13T13:16:04.778Z,17.10
2019-05-13T13:17:37.199Z,17.40
2019-05-13T13:19:14.031Z,17.70
2019-05-13T13:20:43.965Z,18.00
2019-05-13T13:22:16.364Z,18.10
2019-05-13T13:23:48.935Z,18.10
2019-05-13T13:25:23.849Z,18.00
2019-05-13T13:26:55.467Z,17.90
2019-05-13T13:28:28.160Z,17.80
2019-05-13T13:30:07.122Z,17.60
2019-05-13T13:31:34.698Z,17.40
2019-05-13T13:33:07.184Z,17.30
2019-05-13T13:34:43.623Z,17.20
2019-05-13T13:36:15.453Z,17.10
2019-05-13T13:37:48.117Z,17.00
2019-05-13T13:39:25.219Z,17.00
2019-05-13T13:40:54.740Z,16.90
2019-05-13T13:42:27.211Z,16.80
2019-05-13T13:44:04.711Z,16.80
2019-05-13T13:46:05.920Z,16.80
2019-05-13T13:47:07.814Z,16.70
2019-05-13T13:48:43.808Z,16.70
2019-05-13T13:50:14.306Z,16.60
2019-05-13T13:51:46.803Z,16.60
2019-05-13T13:53:25.164Z,16.50
2019-05-13T13:55:02.759Z,16.50
2019-05-13T13:56:27.431Z,16.60
2019-05-13T13:58:02.265Z,16.60
2019-05-13T13:59:35.889Z,16.60
2019-05-13T14:01:17.525Z,16.70
2019-05-13T14:02:43.237Z,16.70
2019-05-13T14:04:16.573Z,16.80
2019-05-13T14:05:52.683Z,17.20
2019-05-13T14:06:25.464Z,14.00
2019-05-13T14:06:26.944Z,14.00
2019-05-13T14:07:33.571Z,17.90
2019-05-13T14:08:57.455Z,19.00
2019-05-13T14:10:31.836Z,20.20
2019-05-13T14:12:04.019Z,21.10
2019-05-13T14:13:36.669Z,22.20
2019-05-13T14:15:09.260Z,23.40
2019-05-13T14:16:42.408Z,24.60
2019-05-13T14:18:15.754Z,25.80
2019-05-13T14:19:48.214Z,26.90
2019-05-13T14:21:21.559Z,28.10
2019-05-13T14:22:57.811Z,29.10
2019-05-13T14:24:28.651Z,30.10
2019-05-13T14:26:01.149Z,30.90
2019-05-13T14:27:33.575Z,31.30
2019-05-13T14:29:06.077Z,31.20
2019-05-13T14:30:38.506Z,30.80
2019-05-13T14:32:10.942Z,30.10
2019-05-13T14:33:43.411Z,29.30
2019-05-13T14:35:15.813Z,28.50
2019-05-13T14:36:48.266Z,27.60
2019-05-13T14:38:22.326Z,26.80
2019-05-13T14:39:54.852Z,26.10
2019-05-13T14:41:27.223Z,25.50
2019-05-13T14:43:00.854Z,25.20
2019-05-13T14:44:33.814Z,25.00
2019-05-13T14:46:06.260Z,24.70
2019-05-13T14:47:38.727Z,24.70
2019-05-13T14:49:12.314Z,25.10
2019-05-13T14:50:44.900Z,25.60
2019-05-13T14:52:17.379Z,26.40
2019-05-13T14:53:51.971Z,27.10
2019-05-13T14:55:23.955Z,27.80
2019-05-13T14:56:56.383Z,28.40
2019-05-13T14:58:28.842Z,29.00
2019-05-13T15:00:02.376Z,29.60
2019-05-13T15:01:35.035Z,30.30
2019-05-13T15:03:07.479Z,30.90
2019-05-13T15:04:41.843Z,31.50
2019-05-13T15:06:14.071Z,32.00
2019-05-13T15:07:46.724Z,32.40
2019-05-13T15:09:19.199Z,32.70
2019-05-13T15:10:53.405Z,32.90
2019-05-13T15:12:26.064Z,33.20
2019-05-13T15:13:58.476Z,33.40
2019-05-13T15:15:31.718Z,33.60
2019-05-13T15:17:07.552Z,33.80
2019-05-13T15:18:38.442Z,33.80
2019-05-13T15:20:12.279Z,33.50
2019-05-13T15:21:44.867Z,33.00
2019-05-13T15:23:17.329Z,32.30
2019-05-13T15:24:51.869Z,31.50
2019-05-13T15:26:23.865Z,30.60
2019-05-13T15:27:56.327Z,29.70
2019-05-13T15:29:31.101Z,28.80
2019-05-13T15:31:02.840Z,28.00
2019-05-13T15:32:35.175Z,27.20
2019-05-13T15:34:07.608Z,26.40
2019-05-13T15:35:41.983Z,25.80
2019-05-13T15:37:14.040Z,25.30
2019-05-13T15:38:46.475Z,25.10
2019-05-13T15:40:18.974Z,25.00
2019-05-13T15:41:52.345Z,25.10
2019-05-13T15:43:24.971Z,25.20
2019-05-13T15:44:57.478Z,25.30
2019-05-13T15:46:31.805Z,25.50
2019-05-13T15:48:04.013Z,25.70
2019-05-13T15:49:36.480Z,25.90
2019-05-13T15:51:11.110Z,26.10
2019-05-13T15:52:43.508Z,26.20
2019-05-13T15:54:15.995Z,26.30
2019-05-13T15:55:48.419Z,26.40
2019-05-13T15:57:21.400Z,26.50
2019-05-13T15:58:54.187Z,26.50
2019-05-13T16:00:26.610Z,26.30
2019-05-13T16:02:01.276Z,26.00
2019-05-13T16:03:33.197Z,25.60
2019-05-13T16:05:05.696Z,25.20
2019-05-13T16:06:38.426Z,24.80
2019-05-13T16:08:12.198Z,24.40
2019-05-13T16:09:44.711Z,24.00
2019-05-13T16:11:17.069Z,23.50
2019-05-13T16:12:51.347Z,23.10
2019-05-13T16:14:23.738Z,22.60
2019-05-13T16:15:56.163Z,22.20
2019-05-13T16:17:40.935Z,21.80
2019-05-13T16:19:03.095Z,21.50
2019-05-13T16:20:35.570Z,21.20
2019-05-13T16:22:07.988Z,20.90
2019-05-13T16:23:42.691Z,20.70
2019-05-13T16:25:14.497Z,20.50
2019-05-13T16:26:46.997Z,20.30
2019-05-13T16:28:19.659Z,20.10
2019-05-13T16:29:52.082Z,20.00
2019-05-13T16:31:24.581Z,19.80
2019-05-13T16:32:56.931Z,19.80
2019-05-13T16:34:31.714Z,19.80
2019-05-13T16:36:03.367Z,19.70
2019-05-13T16:37:38.827Z,19.70
2019-05-13T16:39:12.282Z,19.70
2019-05-13T16:40:45.132Z,19.70
2019-05-13T16:42:17.571Z,19.70
2019-05-13T16:43:50.038Z,19.70
2019-05-13T16:45:22.372Z,19.70
2019-05-13T16:46:54.795Z,19.70
2019-05-13T16:48:27.221Z,19.60
2019-05-13T16:50:02.488Z,19.60
2019-05-13T16:51:33.775Z,19.60
2019-05-13T16:53:06.205Z,19.60
2019-05-13T16:54:38.603Z,19.60
2019-05-13T16:56:25.286Z,19.60
2019-05-13T16:57:45.131Z,19.60
2019-05-13T16:59:17.532Z,19.60
2019-05-13T17:00:52.093Z,19.50
2019-05-13T17:02:24.045Z,19.50
2019-05-13T17:03:56.459Z,19.40
2019-05-13T17:05:28.801Z,19.40
2019-05-13T17:07:01.659Z,19.30
2019-05-13T17:08:34.611Z,19.30
2019-05-13T17:10:06.950Z,19.20
2019-05-13T17:11:41.330Z,19.10
2019-05-13T17:13:13.474Z,19.10
2019-05-13T17:14:45.826Z,19.00
2019-05-13T17:16:18.292Z,18.90
2019-05-13T17:17:51.506Z,18.80
2019-05-13T17:19:24.065Z,18.70
2019-05-13T17:20:56.472Z,18.60
2019-05-13T17:22:31.452Z,18.50
2019-05-13T17:24:02.925Z,18.40
2019-05-13T17:25:35.339Z,18.30
2019-05-13T17:27:07.739Z,18.20
2019-05-13T17:28:41.680Z,18.00
2019-05-13T17:30:14.270Z,17.90
2019-05-13T17:31:46.684Z,17.80
2019-05-13T17:33:19.379Z,17.60
2019-05-13T17:34:53.207Z,17.50
2019-05-13T17:36:25.613Z,17.40
2019-05-13T17:37:58.129Z,17.30
2019-05-13T17:39:32.175Z,17.20
2019-05-13T17:41:04.744Z,17.10
2019-05-13T17:42:37.074Z,17.00
2019-05-13T17:44:11.561Z,16.90
2019-05-13T17:45:43.555Z,16.90
2019-05-13T17:47:15.891Z,16.80
2019-05-13T17:48:48.277Z,16.80
2019-05-13T17:50:22.323Z,16.70
2019-05-13T17:51:54.822Z,16.60
2019-05-13T17:53:27.226Z,16.50
2019-05-13T17:55:01.106Z,16.50
2019-05-13T17:56:33.897Z,16.40
2019-05-13T17:58:06.300Z,16.40
2019-05-13T17:59:38.644Z,16.30
2019-05-13T18:01:12.049Z,16.30
2019-05-13T18:02:44.653Z,16.20
2019-05-13T18:04:17.085Z,16.20
2019-05-13T18:05:51.329Z,16.10
2019-05-13T18:07:23.542Z,16.10
2019-05-13T18:08:56.012Z,16.00
2019-05-13T18:10:28.465Z,16.00
2019-05-13T18:12:02.466Z,16.00
2019-05-13T18:13:35.106Z,15.90
2019-05-13T18:15:07.456Z,15.90
2019-05-13T18:16:42.070Z,15.90
2019-05-13T18:18:13.966Z,15.80
2019-05-13T18:19:46.352Z,15.80
2019-05-13T18:21:18.891Z,15.70
2019-05-13T18:22:52.300Z,15.70
2019-05-13T18:24:25.059Z,15.70
2019-05-13T18:25:57.484Z,15.60
2019-05-13T18:27:32.197Z,15.60
2019-05-13T18:29:03.999Z,15.60
2019-05-13T18:30:36.400Z,15.60
2019-05-13T18:32:08.742Z,15.50
2019-05-13T18:33:42.433Z,15.50
2019-05-13T18:35:15.055Z,15.50
2019-05-13T18:36:47.408Z,15.40
2019-05-13T18:38:21.126Z,15.40
2019-05-13T18:39:53.915Z,15.40
2019-05-13T18:41:26.427Z,15.40
2019-05-13T18:42:58.751Z,15.30
2019-05-13T18:44:31.664Z,15.30
2019-05-13T18:46:04.452Z,15.30
2019-05-13T18:47:36.806Z,15.30
2019-05-13T18:49:11.968Z,15.30
2019-05-13T18:50:44.184Z,15.30
2019-05-13T18:52:16.767Z,15.30
2019-05-13T18:53:51.781Z,15.30
2019-05-13T18:55:23.570Z,15.30
2019-05-13T18:56:55.957Z,15.20
2019-05-13T18:58:28.352Z,15.30
2019-05-13T19:00:02.043Z,15.20
2019-05-13T19:01:34.971Z,15.20
2019-05-13T19:03:07.380Z,15.20
2019-05-13T19:04:41.806Z,15.20
2019-05-13T19:06:13.885Z,15.20
2019-05-13T19:07:46.314Z,15.20
2019-05-13T19:09:18.716Z,15.20
2019-05-13T19:10:52.209Z,15.20
2019-05-13T19:12:25.825Z,15.20
2019-05-13T19:13:58.723Z,15.20
2019-05-13T19:15:31.747Z,15.10
2019-05-13T19:17:04.619Z,15.10
2019-05-13T19:18:37.101Z,15.10
2019-05-13T19:20:11.621Z,15.10
2019-05-13T19:21:43.671Z,15.10
2019-05-13T19:23:16.307Z,15.10
2019-05-13T19:24:48.711Z,15.10
2019-05-13T19:26:21.796Z,15.00
2019-05-13T19:27:54.478Z,15.00
2019-05-13T19:29:26.936Z,15.00
2019-05-13T19:30:59.432Z,15.00
2019-05-13T19:32:32.338Z,15.00
2019-05-13T19:34:04.906Z,15.00
2019-05-13T19:35:37.384Z,15.00
2019-05-13T19:37:11.540Z,15.00
2019-05-13T19:38:43.891Z,14.90
2019-05-13T19:40:16.412Z,14.90
2019-05-13T19:41:48.826Z,14.90
2019-05-13T19:43:21.859Z,14.90
2019-05-13T19:44:54.359Z,14.90
2019-05-13T19:46:26.761Z,14.90
2019-05-13T19:48:01.129Z,14.90
2019-05-13T19:49:37.031Z,14.80
2019-05-13T19:51:07.370Z,14.80
2019-05-13T19:52:41.476Z,14.80
2019-05-13T19:54:14.101Z,14.80
2019-05-13T19:55:46.520Z,14.70
2019-05-13T19:57:21.113Z,14.70
2019-05-13T19:58:53.013Z,14.70
2019-05-13T20:00:25.501Z,14.60
2019-05-13T20:01:57.859Z,14.60
2019-05-13T20:03:31.716Z,14.60
2019-05-13T20:05:05.176Z,14.50
2019-05-13T20:06:37.529Z,14.50
2019-05-13T20:08:10.496Z,14.40
2019-05-13T20:09:42.910Z,14.40